sensor_id;sensor_type;location;lat;lon;timestamp;temperature;humidity
68235;DHT22;55052;52.056;5.296;2023-04-26T00:01:57;4.40;72.80
68235;DHT22;55052;52.056;5.296;2023-04-26T00:04:24;4.40;73.00
68235;DHT22;55052;52.056;5.296;2023-04-26T00:06:51;4.40;73.10
68235;DHT22;55052;52.056;5.296;2023-04-26T00:09:18;4.40;73.20
68235;DHT22;55052;52.056;5.296;2023-04-26T00:11:45;4.30;73.20
68235;DHT22;55052;52.056;5.296;2023-04-26T00:14:12;4.30;73.40
68235;DHT22;55052;52.056;5.296;2023-04-26T00:16:39;4.30;73.50
68235;DHT22;55052;52.056;5.296;2023-04-26T00:19:06;4.20;73.60
68235;DHT22;55052;52.056;5.296;2023-04-26T00:21:33;4.20;74.60
68235;DHT22;55052;52.056;5.296;2023-04-26T00:24:00;4.20;73.80
68235;DHT22;55052;52.056;5.296;2023-04-26T00:26:27;4.20;73.90
68235;DHT22;55052;52.056;5.296;2023-04-26T00:28:55;4.10;73.90
68235;DHT22;55052;52.056;5.296;2023-04-26T00:31:22;4.10;74.00
68235;DHT22;55052;52.056;5.296;2023-04-26T00:33:51;4.10;74.00
68235;DHT22;55052;52.056;5.296;2023-04-26T00:36:18;4.00;74.00
68235;DHT22;55052;52.056;5.296;2023-04-26T00:38:45;4.00;74.10
68235;DHT22;55052;52.056;5.296;2023-04-26T00:41:13;4.00;74.20
68235;DHT22;55052;52.056;5.296;2023-04-26T00:43:40;4.00;74.20
68235;DHT22;55052;52.056;5.296;2023-04-26T00:46:08;3.90;74.20
68235;DHT22;55052;52.056;5.296;2023-04-26T00:48:36;3.90;74.30
68235;DHT22;55052;52.056;5.296;2023-04-26T00:51:04;3.80;74.30
68235;DHT22;55052;52.056;5.296;2023-04-26T00:53:31;3.80;74.30
68235;DHT22;55052;52.056;5.296;2023-04-26T00:55:59;3.80;74.40
68235;DHT22;55052;52.056;5.296;2023-04-26T00:58:28;3.70;74.40
68235;DHT22;55052;52.056;5.296;2023-04-26T01:00:55;3.70;74.60
68235;DHT22;55052;52.056;5.296;2023-04-26T01:03:22;3.70;74.60
68235;DHT22;55052;52.056;5.296;2023-04-26T01:05:51;3.70;74.60
68235;DHT22;55052;52.056;5.296;2023-04-26T01:08:19;3.60;74.70
68235;DHT22;55052;52.056;5.296;2023-04-26T01:10:47;3.60;74.70
68235;DHT22;55052;52.056;5.296;2023-04-26T01:13:15;3.50;74.70
68235;DHT22;55052;52.056;5.296;2023-04-26T01:15:45;3.50;74.80
68235;DHT22;55052;52.056;5.296;2023-04-26T01:18:13;3.50;74.80
68235;DHT22;55052;52.056;5.296;2023-04-26T01:20:41;3.40;74.90
68235;DHT22;55052;52.056;5.296;2023-04-26T01:23:09;3.40;75.00
68235;DHT22;55052;52.056;5.296;2023-04-26T01:25:37;3.40;75.10
68235;DHT22;55052;52.056;5.296;2023-04-26T01:28:04;3.40;75.10
68235;DHT22;55052;52.056;5.296;2023-04-26T01:30:31;3.30;75.10
68235;DHT22;55052;52.056;5.296;2023-04-26T01:32:58;3.30;75.10
68235;DHT22;55052;52.056;5.296;2023-04-26T01:35:25;3.30;75.10
68235;DHT22;55052;52.056;5.296;2023-04-26T01:37:52;3.30;75.20
68235;DHT22;55052;52.056;5.296;2023-04-26T01:40:19;3.20;75.20
68235;DHT22;55052;52.056;5.296;2023-04-26T01:42:46;3.20;75.30
68235;DHT22;55052;52.056;5.296;2023-04-26T01:45:13;3.20;75.30
68235;DHT22;55052;52.056;5.296;2023-04-26T01:47:40;3.20;75.40
68235;DHT22;55052;52.056;5.296;2023-04-26T01:50:08;3.10;75.40
68235;DHT22;55052;52.056;5.296;2023-04-26T01:52:35;3.10;75.40
68235;DHT22;55052;52.056;5.296;2023-04-26T01:55:02;3.10;75.50
68235;DHT22;55052;52.056;5.296;2023-04-26T01:57:29;3.00;75.50
68235;DHT22;55052;52.056;5.296;2023-04-26T01:59:56;3.00;75.60
68235;DHT22;55052;52.056;5.296;2023-04-26T02:02:24;3.00;75.60
68235;DHT22;55052;52.056;5.296;2023-04-26T02:04:51;2.90;76.40
68235;DHT22;55052;52.056;5.296;2023-04-26T02:07:18;2.90;75.70
68235;DHT22;55052;52.056;5.296;2023-04-26T02:09:46;2.90;75.80
68235;DHT22;55052;52.056;5.296;2023-04-26T02:12:13;2.80;75.80
68235;DHT22;55052;52.056;5.296;2023-04-26T02:14:40;2.80;75.90
68235;DHT22;55052;52.056;5.296;2023-04-26T02:17:06;2.80;75.90
68235;DHT22;55052;52.056;5.296;2023-04-26T02:19:34;2.70;76.00
68235;DHT22;55052;52.056;5.296;2023-04-26T02:22:03;2.70;76.00
68235;DHT22;55052;52.056;5.296;2023-04-26T02:24:31;2.70;76.00
68235;DHT22;55052;52.056;5.296;2023-04-26T02:26:59;2.60;76.10
68235;DHT22;55052;52.056;5.296;2023-04-26T02:29:29;2.60;76.20
68235;DHT22;55052;52.056;5.296;2023-04-26T02:32:10;2.60;76.30
68235;DHT22;55052;52.056;5.296;2023-04-26T02:34:37;2.60;76.30
68235;DHT22;55052;52.056;5.296;2023-04-26T02:37:04;2.50;76.30
68235;DHT22;55052;52.056;5.296;2023-04-26T02:39:31;2.50;76.40
68235;DHT22;55052;52.056;5.296;2023-04-26T02:41:58;2.50;76.50
68235;DHT22;55052;52.056;5.296;2023-04-26T02:44:28;2.50;76.50
68235;DHT22;55052;52.056;5.296;2023-04-26T02:46:55;2.40;76.40
68235;DHT22;55052;52.056;5.296;2023-04-26T02:49:23;2.40;76.50
68235;DHT22;55052;52.056;5.296;2023-04-26T02:51:49;2.40;76.60
68235;DHT22;55052;52.056;5.296;2023-04-26T02:54:17;2.40;76.70
68235;DHT22;55052;52.056;5.296;2023-04-26T02:56:43;2.40;76.60
68235;DHT22;55052;52.056;5.296;2023-04-26T02:59:10;2.40;76.70
68235;DHT22;55052;52.056;5.296;2023-04-26T03:01:37;2.40;76.70
68235;DHT22;55052;52.056;5.296;2023-04-26T03:04:04;2.40;76.80
68235;DHT22;55052;52.056;5.296;2023-04-26T03:06:31;2.30;76.80
68235;DHT22;55052;52.056;5.296;2023-04-26T03:08:58;2.30;76.90
68235;DHT22;55052;52.056;5.296;2023-04-26T03:11:25;2.30;76.90
68235;DHT22;55052;52.056;5.296;2023-04-26T03:13:52;2.30;77.00
68235;DHT22;55052;52.056;5.296;2023-04-26T03:16:19;2.30;77.80
68235;DHT22;55052;52.056;5.296;2023-04-26T03:18:47;2.30;77.00
68235;DHT22;55052;52.056;5.296;2023-04-26T03:21:13;2.30;77.10
68235;DHT22;55052;52.056;5.296;2023-04-26T03:23:41;2.20;77.10
68235;DHT22;55052;52.056;5.296;2023-04-26T03:26:07;2.20;77.10
68235;DHT22;55052;52.056;5.296;2023-04-26T03:28:34;2.20;77.30
68235;DHT22;55052;52.056;5.296;2023-04-26T03:31:01;2.20;77.30
68235;DHT22;55052;52.056;5.296;2023-04-26T03:33:30;2.20;77.40
68235;DHT22;55052;52.056;5.296;2023-04-26T03:35:57;2.20;77.50
68235;DHT22;55052;52.056;5.296;2023-04-26T03:38:24;2.20;77.60
68235;DHT22;55052;52.056;5.296;2023-04-26T03:40:51;2.20;77.60
68235;DHT22;55052;52.056;5.296;2023-04-26T03:43:18;2.10;77.50
68235;DHT22;55052;52.056;5.296;2023-04-26T03:45:48;2.20;77.60
68235;DHT22;55052;52.056;5.296;2023-04-26T03:48:15;2.20;77.60
68235;DHT22;55052;52.056;5.296;2023-04-26T03:50:43;2.10;77.60
68235;DHT22;55052;52.056;5.296;2023-04-26T03:53:11;2.10;77.70
68235;DHT22;55052;52.056;5.296;2023-04-26T03:55:38;2.10;77.70
68235;DHT22;55052;52.056;5.296;2023-04-26T03:58:05;2.10;77.70
68235;DHT22;55052;52.056;5.296;2023-04-26T04:00:37;2.10;77.80
68235;DHT22;55052;52.056;5.296;2023-04-26T04:03:05;2.10;77.70
68235;DHT22;55052;52.056;5.296;2023-04-26T04:05:33;2.00;77.80
68235;DHT22;55052;52.056;5.296;2023-04-26T04:08:00;2.00;77.80
68235;DHT22;55052;52.056;5.296;2023-04-26T04:10:28;2.00;77.90
68235;DHT22;55052;52.056;5.296;2023-04-26T04:12:55;2.00;77.90
68235;DHT22;55052;52.056;5.296;2023-04-26T04:15:22;2.00;77.90
68235;DHT22;55052;52.056;5.296;2023-04-26T04:17:48;2.00;78.00
68235;DHT22;55052;52.056;5.296;2023-04-26T04:20:16;2.00;78.10
68235;DHT22;55052;52.056;5.296;2023-04-26T04:22:42;2.00;78.10
68235;DHT22;55052;52.056;5.296;2023-04-26T04:25:09;2.00;78.20
68235;DHT22;55052;52.056;5.296;2023-04-26T04:27:37;2.00;78.20
68235;DHT22;55052;52.056;5.296;2023-04-26T04:30:04;2.00;78.20
68235;DHT22;55052;52.056;5.296;2023-04-26T04:32:33;1.90;78.30
68235;DHT22;55052;52.056;5.296;2023-04-26T04:35:00;2.00;78.30
68235;DHT22;55052;52.056;5.296;2023-04-26T04:37:27;1.90;78.30
68235;DHT22;55052;52.056;5.296;2023-04-26T04:39:54;1.90;78.50
68235;DHT22;55052;52.056;5.296;2023-04-26T04:42:21;2.00;78.60
68235;DHT22;55052;52.056;5.296;2023-04-26T04:44:49;1.90;78.60
68235;DHT22;55052;52.056;5.296;2023-04-26T04:47:17;2.00;78.70
68235;DHT22;55052;52.056;5.296;2023-04-26T04:49:44;2.00;78.70
68235;DHT22;55052;52.056;5.296;2023-04-26T04:52:11;2.00;78.80
68235;DHT22;55052;52.056;5.296;2023-04-26T04:54:38;2.00;78.90
68235;DHT22;55052;52.056;5.296;2023-04-26T04:57:05;2.00;78.90
68235;DHT22;55052;52.056;5.296;2023-04-26T04:59:32;2.10;79.00
68235;DHT22;55052;52.056;5.296;2023-04-26T05:01:59;2.10;79.10
68235;DHT22;55052;52.056;5.296;2023-04-26T05:04:26;2.10;79.10
68235;DHT22;55052;52.056;5.296;2023-04-26T05:06:53;2.20;79.20
68235;DHT22;55052;52.056;5.296;2023-04-26T05:09:19;2.20;80.10
68235;DHT22;55052;52.056;5.296;2023-04-26T05:11:49;2.20;79.30
68235;DHT22;55052;52.056;5.296;2023-04-26T05:14:16;2.20;79.30
68235;DHT22;55052;52.056;5.296;2023-04-26T05:16:43;2.30;79.50
68235;DHT22;55052;52.056;5.296;2023-04-26T05:19:09;2.30;79.50
68235;DHT22;55052;52.056;5.296;2023-04-26T05:21:37;2.40;79.60
68235;DHT22;55052;52.056;5.296;2023-04-26T05:24:04;2.40;79.60
68235;DHT22;55052;52.056;5.296;2023-04-26T05:26:31;2.50;79.70
68235;DHT22;55052;52.056;5.296;2023-04-26T05:28:57;2.50;79.80
68235;DHT22;55052;52.056;5.296;2023-04-26T05:31:24;2.60;79.90
68235;DHT22;55052;52.056;5.296;2023-04-26T05:33:51;2.70;80.00
68235;DHT22;55052;52.056;5.296;2023-04-26T05:36:19;2.70;80.00
68235;DHT22;55052;52.056;5.296;2023-04-26T05:38:47;2.80;80.10
68235;DHT22;55052;52.056;5.296;2023-04-26T05:41:14;2.80;80.20
68235;DHT22;55052;52.056;5.296;2023-04-26T05:43:41;2.90;80.30
68235;DHT22;55052;52.056;5.296;2023-04-26T05:46:08;3.00;80.40
68235;DHT22;55052;52.056;5.296;2023-04-26T05:48:35;3.10;81.40
68235;DHT22;55052;52.056;5.296;2023-04-26T05:51:02;3.20;80.60
68235;DHT22;55052;52.056;5.296;2023-04-26T05:53:29;3.30;80.80
68235;DHT22;55052;52.056;5.296;2023-04-26T05:55:55;3.40;80.90
68235;DHT22;55052;52.056;5.296;2023-04-26T05:58:22;3.50;81.00
68235;DHT22;55052;52.056;5.296;2023-04-26T06:00:49;3.60;81.20
68235;DHT22;55052;52.056;5.296;2023-04-26T06:03:16;3.70;81.40
68235;DHT22;55052;52.056;5.296;2023-04-26T06:05:43;3.90;81.60
68235;DHT22;55052;52.056;5.296;2023-04-26T06:08:10;4.00;81.80
68235;DHT22;55052;52.056;5.296;2023-04-26T06:10:36;4.20;82.00
68235;DHT22;55052;52.056;5.296;2023-04-26T06:13:03;4.30;82.00
68235;DHT22;55052;52.056;5.296;2023-04-26T06:15:30;4.50;82.10
68235;DHT22;55052;52.056;5.296;2023-04-26T06:17:57;4.60;82.20
68235;DHT22;55052;52.056;5.296;2023-04-26T06:20:24;4.70;82.20
68235;DHT22;55052;52.056;5.296;2023-04-26T06:22:51;4.80;82.30
68235;DHT22;55052;52.056;5.296;2023-04-26T06:25:18;5.00;82.40
68235;DHT22;55052;52.056;5.296;2023-04-26T06:27:45;5.10;82.40
68235;DHT22;55052;52.056;5.296;2023-04-26T06:30:12;5.20;82.60
68235;DHT22;55052;52.056;5.296;2023-04-26T06:32:41;5.30;82.80
68235;DHT22;55052;52.056;5.296;2023-04-26T06:35:08;5.50;83.00
68235;DHT22;55052;52.056;5.296;2023-04-26T06:37:36;5.60;83.10
68235;DHT22;55052;52.056;5.296;2023-04-26T06:40:04;5.80;83.20
68235;DHT22;55052;52.056;5.296;2023-04-26T06:42:31;5.90;83.40
68235;DHT22;55052;52.056;5.296;2023-04-26T06:44:58;6.10;83.70
68235;DHT22;55052;52.056;5.296;2023-04-26T06:47:25;6.20;83.70
68235;DHT22;55052;52.056;5.296;2023-04-26T06:49:52;6.30;83.70
68235;DHT22;55052;52.056;5.296;2023-04-26T06:52:18;6.50;83.70
68235;DHT22;55052;52.056;5.296;2023-04-26T06:54:47;6.60;83.50
68235;DHT22;55052;52.056;5.296;2023-04-26T06:57:23;6.70;83.40
68235;DHT22;55052;52.056;5.296;2023-04-26T06:59:50;6.90;83.30
68235;DHT22;55052;52.056;5.296;2023-04-26T07:02:17;7.00;83.10
68235;DHT22;55052;52.056;5.296;2023-04-26T07:04:44;7.10;82.90
68235;DHT22;55052;52.056;5.296;2023-04-26T07:07:11;7.20;82.70
68235;DHT22;55052;52.056;5.296;2023-04-26T07:09:39;7.30;82.50
68235;DHT22;55052;52.056;5.296;2023-04-26T07:12:06;7.40;82.30
68235;DHT22;55052;52.056;5.296;2023-04-26T07:14:33;7.50;82.00
68235;DHT22;55052;52.056;5.296;2023-04-26T07:17:06;7.60;81.90
68235;DHT22;55052;52.056;5.296;2023-04-26T07:19:32;7.70;81.70
68235;DHT22;55052;52.056;5.296;2023-04-26T07:21:59;7.80;81.40
68235;DHT22;55052;52.056;5.296;2023-04-26T07:24:27;7.90;81.20
68235;DHT22;55052;52.056;5.296;2023-04-26T07:26:54;8.00;80.80
68235;DHT22;55052;52.056;5.296;2023-04-26T07:29:21;8.10;80.40
68235;DHT22;55052;52.056;5.296;2023-04-26T07:31:48;8.10;79.90
68235;DHT22;55052;52.056;5.296;2023-04-26T07:34:15;8.20;79.50
68235;DHT22;55052;52.056;5.296;2023-04-26T07:36:42;8.30;79.40
68235;DHT22;55052;52.056;5.296;2023-04-26T07:39:08;8.40;78.90
68235;DHT22;55052;52.056;5.296;2023-04-26T07:41:37;8.50;78.30
68235;DHT22;55052;52.056;5.296;2023-04-26T07:44:04;8.50;77.50
68235;DHT22;55052;52.056;5.296;2023-04-26T07:46:32;8.60;76.90
68235;DHT22;55052;52.056;5.296;2023-04-26T07:49:00;8.60;76.60
68235;DHT22;55052;52.056;5.296;2023-04-26T07:51:27;8.70;76.00
68235;DHT22;55052;52.056;5.296;2023-04-26T07:53:54;8.70;75.60
68235;DHT22;55052;52.056;5.296;2023-04-26T07:56:21;8.70;75.50
68235;DHT22;55052;52.056;5.296;2023-04-26T07:58:49;8.80;75.40
68235;DHT22;55052;52.056;5.296;2023-04-26T08:01:17;8.90;75.20
68235;DHT22;55052;52.056;5.296;2023-04-26T08:03:44;9.00;74.70
68235;DHT22;55052;52.056;5.296;2023-04-26T08:06:11;9.10;74.40
68235;DHT22;55052;52.056;5.296;2023-04-26T08:08:38;9.10;73.90
68235;DHT22;55052;52.056;5.296;2023-04-26T08:11:10;9.20;73.80
68235;DHT22;55052;52.056;5.296;2023-04-26T08:13:37;9.30;73.70
68235;DHT22;55052;52.056;5.296;2023-04-26T08:16:04;9.40;73.50
68235;DHT22;55052;52.056;5.296;2023-04-26T08:18:32;9.40;72.90
68235;DHT22;55052;52.056;5.296;2023-04-26T08:21:01;9.50;72.50
68235;DHT22;55052;52.056;5.296;2023-04-26T08:23:28;9.50;71.50
68235;DHT22;55052;52.056;5.296;2023-04-26T08:25:58;9.50;71.30
68235;DHT22;55052;52.056;5.296;2023-04-26T08:28:25;9.50;71.00
68235;DHT22;55052;52.056;5.296;2023-04-26T08:30:52;9.50;71.10
68235;DHT22;55052;52.056;5.296;2023-04-26T08:33:19;9.60;70.80
68235;DHT22;55052;52.056;5.296;2023-04-26T08:35:46;9.60;70.80
68235;DHT22;55052;52.056;5.296;2023-04-26T08:38:13;9.60;70.50
68235;DHT22;55052;52.056;5.296;2023-04-26T08:40:40;9.60;70.40
68235;DHT22;55052;52.056;5.296;2023-04-26T08:43:10;9.60;70.30
68235;DHT22;55052;52.056;5.296;2023-04-26T08:45:39;9.60;70.20
68235;DHT22;55052;52.056;5.296;2023-04-26T08:48:10;9.50;69.90
68235;DHT22;55052;52.056;5.296;2023-04-26T08:50:42;9.60;69.60
68235;DHT22;55052;52.056;5.296;2023-04-26T08:53:14;9.50;69.10
68235;DHT22;55052;52.056;5.296;2023-04-26T08:55:49;9.50;68.40
68235;DHT22;55052;52.056;5.296;2023-04-26T08:58:20;9.50;68.90
68235;DHT22;55052;52.056;5.296;2023-04-26T09:00:47;9.40;68.50
68235;DHT22;55052;52.056;5.296;2023-04-26T09:03:15;9.40;68.30
68235;DHT22;55052;52.056;5.296;2023-04-26T09:05:43;9.40;68.00
68235;DHT22;55052;52.056;5.296;2023-04-26T09:08:20;9.40;68.00
68235;DHT22;55052;52.056;5.296;2023-04-26T09:10:47;9.40;68.10
68235;DHT22;55052;52.056;5.296;2023-04-26T09:13:14;9.40;67.90
68235;DHT22;55052;52.056;5.296;2023-04-26T09:15:41;9.40;68.00
68235;DHT22;55052;52.056;5.296;2023-04-26T09:18:18;9.40;67.90
68235;DHT22;55052;52.056;5.296;2023-04-26T09:21:03;9.40;67.60
68235;DHT22;55052;52.056;5.296;2023-04-26T09:23:31;9.40;67.70
68235;DHT22;55052;52.056;5.296;2023-04-26T09:26:17;9.40;68.00
68235;DHT22;55052;52.056;5.296;2023-04-26T09:28:45;9.40;68.10
68235;DHT22;55052;52.056;5.296;2023-04-26T09:31:38;9.40;68.00
68235;DHT22;55052;52.056;5.296;2023-04-26T09:34:05;9.50;67.80
68235;DHT22;55052;52.056;5.296;2023-04-26T09:36:32;9.50;67.50
68235;DHT22;55052;52.056;5.296;2023-04-26T09:39:11;9.50;67.30
68235;DHT22;55052;52.056;5.296;2023-04-26T09:41:42;9.60;67.20
68235;DHT22;55052;52.056;5.296;2023-04-26T09:44:23;9.60;67.30
68235;DHT22;55052;52.056;5.296;2023-04-26T09:46:58;9.70;67.00
68235;DHT22;55052;52.056;5.296;2023-04-26T09:49:27;9.80;67.10
68235;DHT22;55052;52.056;5.296;2023-04-26T09:52:01;9.80;66.60
68235;DHT22;55052;52.056;5.296;2023-04-26T09:57:11;10.00;65.80
68235;DHT22;55052;52.056;5.296;2023-04-26T09:59:39;10.00;66.20
68235;DHT22;55052;52.056;5.296;2023-04-26T10:02:17;10.20;66.40
68235;DHT22;55052;52.056;5.296;2023-04-26T10:04:45;10.30;65.90
68235;DHT22;55052;52.056;5.296;2023-04-26T10:07:14;10.30;65.10
68235;DHT22;55052;52.056;5.296;2023-04-26T10:09:41;10.40;64.60
68235;DHT22;55052;52.056;5.296;2023-04-26T10:12:16;10.40;64.80
68235;DHT22;55052;52.056;5.296;2023-04-26T10:14:44;10.50;65.00
68235;DHT22;55052;52.056;5.296;2023-04-26T10:17:12;10.60;65.20
68235;DHT22;55052;52.056;5.296;2023-04-26T10:19:42;10.70;64.70
68235;DHT22;55052;52.056;5.296;2023-04-26T10:22:22;10.70;64.00
68235;DHT22;55052;52.056;5.296;2023-04-26T10:24:50;10.70;63.30
68235;DHT22;55052;52.056;5.296;2023-04-26T10:30:12;10.70;62.30
68235;DHT22;55052;52.056;5.296;2023-04-26T10:40:31;10.50;62.10
68235;DHT22;55052;52.056;5.296;2023-04-26T10:45:35;10.40;62.90
68235;DHT22;55052;52.056;5.296;2023-04-26T10:48:15;10.40;62.80
68235;DHT22;55052;52.056;5.296;2023-04-26T10:59:09;10.20;62.80
68235;DHT22;55052;52.056;5.296;2023-04-26T11:01:40;10.10;62.90
68235;DHT22;55052;52.056;5.296;2023-04-26T11:04:08;10.10;63.30
68235;DHT22;55052;52.056;5.296;2023-04-26T11:06:54;10.00;63.40
68235;DHT22;55052;52.056;5.296;2023-04-26T11:09:38;10.00;63.60
68235;DHT22;55052;52.056;5.296;2023-04-26T11:12:10;9.90;63.40
68235;DHT22;55052;52.056;5.296;2023-04-26T11:14:41;9.90;63.60
68235;DHT22;55052;52.056;5.296;2023-04-26T11:17:08;9.80;63.80
68235;DHT22;55052;52.056;5.296;2023-04-26T11:19:36;9.80;63.80
68235;DHT22;55052;52.056;5.296;2023-04-26T11:22:06;9.80;63.90
68235;DHT22;55052;52.056;5.296;2023-04-26T11:24:34;9.70;63.90
68235;DHT22;55052;52.056;5.296;2023-04-26T11:27:08;9.70;64.00
68235;DHT22;55052;52.056;5.296;2023-04-26T11:29:36;9.70;64.10
68235;DHT22;55052;52.056;5.296;2023-04-26T11:32:03;9.80;64.20
68235;DHT22;55052;52.056;5.296;2023-04-26T11:34:34;9.80;64.20
68235;DHT22;55052;52.056;5.296;2023-04-26T11:37:02;9.80;64.30
68235;DHT22;55052;52.056;5.296;2023-04-26T11:39:34;9.90;64.40
68235;DHT22;55052;52.056;5.296;2023-04-26T11:42:05;9.90;64.60
68235;DHT22;55052;52.056;5.296;2023-04-26T11:44:33;9.90;64.50
68235;DHT22;55052;52.056;5.296;2023-04-26T11:47:00;10.00;64.40
68235;DHT22;55052;52.056;5.296;2023-04-26T11:49:31;10.10;64.40
68235;DHT22;55052;52.056;5.296;2023-04-26T11:51:58;10.20;64.40
68235;DHT22;55052;52.056;5.296;2023-04-26T11:54:33;10.20;63.80
68235;DHT22;55052;52.056;5.296;2023-04-26T11:57:00;10.30;63.60
68235;DHT22;55052;52.056;5.296;2023-04-26T11:59:40;10.40;63.30
68235;DHT22;55052;52.056;5.296;2023-04-26T12:02:07;10.40;62.80
68235;DHT22;55052;52.056;5.296;2023-04-26T12:04:34;10.50;62.50
68235;DHT22;55052;52.056;5.296;2023-04-26T12:07:03;10.50;62.30
68235;DHT22;55052;52.056;5.296;2023-04-26T12:09:30;10.60;62.10
68235;DHT22;55052;52.056;5.296;2023-04-26T12:12:01;10.70;61.90
68235;DHT22;55052;52.056;5.296;2023-04-26T12:14:38;10.80;62.00
68235;DHT22;55052;52.056;5.296;2023-04-26T12:17:06;10.90;61.90
68235;DHT22;55052;52.056;5.296;2023-04-26T12:19:36;11.00;62.80
68235;DHT22;55052;52.056;5.296;2023-04-26T12:22:04;11.20;63.20
68235;DHT22;55052;52.056;5.296;2023-04-26T12:24:32;11.40;63.00
68235;DHT22;55052;52.056;5.296;2023-04-26T12:27:02;11.70;62.50
68235;DHT22;55052;52.056;5.296;2023-04-26T12:29:30;11.80;60.90
68235;DHT22;55052;52.056;5.296;2023-04-26T12:31:58;12.00;60.30
68235;DHT22;55052;52.056;5.296;2023-04-26T12:34:25;12.10;60.20
68235;DHT22;55052;52.056;5.296;2023-04-26T12:36:52;12.20;59.80
68235;DHT22;55052;52.056;5.296;2023-04-26T12:39:19;12.40;59.00
68235;DHT22;55052;52.056;5.296;2023-04-26T12:41:46;12.50;59.00
68235;DHT22;55052;52.056;5.296;2023-04-26T12:44:13;12.60;57.70
68235;DHT22;55052;52.056;5.296;2023-04-26T12:46:40;12.60;57.20
68235;DHT22;55052;52.056;5.296;2023-04-26T12:49:07;12.70;57.10
68235;DHT22;55052;52.056;5.296;2023-04-26T12:51:34;12.80;57.60
68235;DHT22;55052;52.056;5.296;2023-04-26T12:54:01;12.90;57.60
68235;DHT22;55052;52.056;5.296;2023-04-26T12:56:28;12.90;57.80
68235;DHT22;55052;52.056;5.296;2023-04-26T12:58:56;12.90;57.10
68235;DHT22;55052;52.056;5.296;2023-04-26T13:01:23;12.90;56.50
68235;DHT22;55052;52.056;5.296;2023-04-26T13:03:49;12.80;55.50
68235;DHT22;55052;52.056;5.296;2023-04-26T13:06:17;12.80;55.30
68235;DHT22;55052;52.056;5.296;2023-04-26T13:08:44;12.70;55.00
68235;DHT22;55052;52.056;5.296;2023-04-26T13:11:10;12.60;54.40
68235;DHT22;55052;52.056;5.296;2023-04-26T13:13:37;12.60;55.70
68235;DHT22;55052;52.056;5.296;2023-04-26T13:16:10;12.60;55.20
68235;DHT22;55052;52.056;5.296;2023-04-26T13:18:38;12.60;56.30
68235;DHT22;55052;52.056;5.296;2023-04-26T13:21:05;12.60;55.40
68235;DHT22;55052;52.056;5.296;2023-04-26T13:23:32;12.60;55.10
68235;DHT22;55052;52.056;5.296;2023-04-26T13:25:59;12.60;55.20
68235;DHT22;55052;52.056;5.296;2023-04-26T13:28:25;12.60;55.10
68235;DHT22;55052;52.056;5.296;2023-04-26T13:30:52;12.60;55.10
68235;DHT22;55052;52.056;5.296;2023-04-26T13:33:19;12.60;55.10
68235;DHT22;55052;52.056;5.296;2023-04-26T13:35:47;12.60;54.70
68235;DHT22;55052;52.056;5.296;2023-04-26T13:38:14;12.60;54.80
68235;DHT22;55052;52.056;5.296;2023-04-26T13:40:42;12.60;55.10
68235;DHT22;55052;52.056;5.296;2023-04-26T13:43:09;12.80;55.10
68235;DHT22;55052;52.056;5.296;2023-04-26T13:45:36;13.10;55.80
68235;DHT22;55052;52.056;5.296;2023-04-26T13:48:03;13.50;56.30
68235;DHT22;55052;52.056;5.296;2023-04-26T13:50:30;13.90;56.30
68235;DHT22;55052;52.056;5.296;2023-04-26T13:52:57;14.10;55.40
68235;DHT22;55052;52.056;5.296;2023-04-26T13:55:25;14.30;54.80
68235;DHT22;55052;52.056;5.296;2023-04-26T13:57:51;14.60;54.30
68235;DHT22;55052;52.056;5.296;2023-04-26T14:00:19;14.90;53.60
68235;DHT22;55052;52.056;5.296;2023-04-26T14:02:46;15.10;53.20
68235;DHT22;55052;52.056;5.296;2023-04-26T14:05:13;15.20;53.20
68235;DHT22;55052;52.056;5.296;2023-04-26T14:07:40;15.20;51.60
68235;DHT22;55052;52.056;5.296;2023-04-26T14:10:08;15.20;51.90
68235;DHT22;55052;52.056;5.296;2023-04-26T14:12:35;15.00;51.70
68235;DHT22;55052;52.056;5.296;2023-04-26T14:15:02;14.90;51.30
68235;DHT22;55052;52.056;5.296;2023-04-26T14:17:31;14.70;50.70
68235;DHT22;55052;52.056;5.296;2023-04-26T14:19:59;14.60;50.90
68235;DHT22;55052;52.056;5.296;2023-04-26T14:22:26;14.50;51.00
68235;DHT22;55052;52.056;5.296;2023-04-26T14:24:53;14.40;51.10
68235;DHT22;55052;52.056;5.296;2023-04-26T14:27:20;14.30;51.10
68235;DHT22;55052;52.056;5.296;2023-04-26T14:29:47;14.20;51.70
68235;DHT22;55052;52.056;5.296;2023-04-26T14:32:14;14.10;52.30
68235;DHT22;55052;52.056;5.296;2023-04-26T14:34:41;14.10;52.10
68235;DHT22;55052;52.056;5.296;2023-04-26T14:37:08;14.00;52.30
68235;DHT22;55052;52.056;5.296;2023-04-26T14:39:36;13.90;53.10
68235;DHT22;55052;52.056;5.296;2023-04-26T14:42:03;13.90;53.30
68235;DHT22;55052;52.056;5.296;2023-04-26T14:44:30;13.90;53.40
68235;DHT22;55052;52.056;5.296;2023-04-26T14:46:57;13.80;53.30
68235;DHT22;55052;52.056;5.296;2023-04-26T14:49:24;13.80;53.50
68235;DHT22;55052;52.056;5.296;2023-04-26T14:51:51;13.70;52.50
68235;DHT22;55052;52.056;5.296;2023-04-26T14:54:19;13.70;53.90
68235;DHT22;55052;52.056;5.296;2023-04-26T14:56:46;13.60;53.00
68235;DHT22;55052;52.056;5.296;2023-04-26T14:59:14;13.50;52.80
68235;DHT22;55052;52.056;5.296;2023-04-26T15:01:41;13.50;52.90
68235;DHT22;55052;52.056;5.296;2023-04-26T15:04:08;13.50;52.80
68235;DHT22;55052;52.056;5.296;2023-04-26T15:06:36;13.50;53.40
68235;DHT22;55052;52.056;5.296;2023-04-26T15:09:02;13.40;53.20
68235;DHT22;55052;52.056;5.296;2023-04-26T15:11:30;13.40;53.30
68235;DHT22;55052;52.056;5.296;2023-04-26T15:13:57;13.40;53.40
68235;DHT22;55052;52.056;5.296;2023-04-26T15:16:23;13.30;53.40
68235;DHT22;55052;52.056;5.296;2023-04-26T15:18:50;13.30;53.90
68235;DHT22;55052;52.056;5.296;2023-04-26T15:21:18;13.20;53.60
68235;DHT22;55052;52.056;5.296;2023-04-26T15:23:45;13.20;53.70
68235;DHT22;55052;52.056;5.296;2023-04-26T15:26:13;13.10;53.30
68235;DHT22;55052;52.056;5.296;2023-04-26T15:28:39;13.00;53.30
68235;DHT22;55052;52.056;5.296;2023-04-26T15:31:08;13.00;53.20
68235;DHT22;55052;52.056;5.296;2023-04-26T15:33:35;12.90;53.30
68235;DHT22;55052;52.056;5.296;2023-04-26T15:36:03;12.90;53.30
68235;DHT22;55052;52.056;5.296;2023-04-26T15:38:29;12.80;54.60
68235;DHT22;55052;52.056;5.296;2023-04-26T15:40:56;12.80;53.80
68235;DHT22;55052;52.056;5.296;2023-04-26T15:43:23;12.70;53.60
68235;DHT22;55052;52.056;5.296;2023-04-26T15:45:50;12.70;53.80
68235;DHT22;55052;52.056;5.296;2023-04-26T15:48:17;12.60;53.40
68235;DHT22;55052;52.056;5.296;2023-04-26T15:50:44;12.60;53.50
68235;DHT22;55052;52.056;5.296;2023-04-26T15:53:11;12.50;53.70
68235;DHT22;55052;52.056;5.296;2023-04-26T15:55:38;12.40;53.70
68235;DHT22;55052;52.056;5.296;2023-04-26T15:58:05;12.40;53.70
68235;DHT22;55052;52.056;5.296;2023-04-26T16:00:33;12.40;53.90
68235;DHT22;55052;52.056;5.296;2023-04-26T16:03:01;12.40;54.10
68235;DHT22;55052;52.056;5.296;2023-04-26T16:05:29;12.40;54.10
68235;DHT22;55052;52.056;5.296;2023-04-26T16:07:57;12.40;54.40
68235;DHT22;55052;52.056;5.296;2023-04-26T16:10:25;12.40;54.60